createdAt,value
2019-03-29T00:00:01.545Z,6.91
2019-03-29T00:01:01.499Z,6.83
2019-03-29T00:02:01.508Z,6.79
2019-03-29T00:03:01.527Z,6.78
2019-03-29T00:04:01.479Z,6.78
2019-03-29T00:05:01.485Z,6.77
2019-03-29T00:06:01.578Z,6.74
2019-03-29T00:07:01.503Z,6.75
2019-03-29T00:08:01.515Z,6.74
2019-03-29T00:09:02.103Z,6.71
2019-03-29T00:10:01.486Z,6.68
2019-03-29T00:11:01.533Z,6.64
2019-03-29T00:12:01.546Z,6.60
2019-03-29T00:13:01.538Z,6.56
2019-03-29T00:14:01.515Z,6.56
2019-03-29T00:15:01.538Z,6.69
2019-03-29T00:16:01.514Z,6.72
2019-03-29T00:17:01.502Z,6.72
2019-03-29T00:18:01.557Z,6.81
2019-03-29T00:19:02.062Z,6.81
2019-03-29T00:20:01.521Z,6.77
2019-03-29T00:21:01.530Z,6.84
2019-03-29T00:22:01.510Z,6.86
2019-03-29T00:23:01.548Z,6.77
2019-03-29T00:24:06.918Z,6.68
2019-03-29T00:25:01.523Z,6.61
2019-03-29T00:26:01.512Z,6.55
2019-03-29T00:27:01.546Z,6.55
2019-03-29T00:28:01.527Z,6.55
2019-03-29T00:29:01.498Z,6.52
2019-03-29T00:30:01.607Z,6.48
2019-03-29T00:31:01.535Z,6.43
2019-03-29T00:32:01.540Z,6.37
2019-03-29T00:33:01.598Z,6.31
2019-03-29T00:34:01.500Z,6.25
2019-03-29T00:35:01.557Z,6.23
2019-03-29T00:36:01.559Z,6.21
2019-03-29T00:37:01.537Z,6.16
2019-03-29T00:38:01.527Z,6.08
2019-03-29T00:39:01.547Z,5.98
2019-03-29T00:40:01.527Z,5.96
2019-03-29T00:41:01.536Z,5.92
2019-03-29T00:42:01.534Z,5.88
2019-03-29T00:43:01.545Z,5.86
2019-03-29T00:44:01.521Z,5.80
2019-03-29T00:45:01.570Z,5.70
2019-03-29T00:46:01.534Z,5.63
2019-03-29T00:47:01.558Z,5.61
2019-03-29T00:48:01.567Z,5.60
2019-03-29T00:49:01.532Z,5.60
2019-03-29T00:50:01.539Z,5.53
2019-03-29T00:51:01.557Z,5.45
2019-03-29T00:52:01.510Z,5.34
2019-03-29T00:53:01.534Z,5.28
2019-03-29T00:54:02.090Z,5.32
2019-03-29T00:55:01.539Z,5.51
2019-03-29T00:56:01.543Z,5.59
2019-03-29T00:57:01.581Z,5.50
2019-03-29T00:58:01.546Z,5.33
2019-03-29T00:59:01.573Z,5.25
2019-03-29T01:00:01.581Z,5.17
2019-03-29T01:01:01.536Z,5.07
2019-03-29T01:02:01.546Z,4.99
2019-03-29T01:03:01.583Z,5.02
2019-03-29T01:04:02.960Z,5.08
2019-03-29T01:05:01.553Z,5.04
2019-03-29T01:06:01.646Z,4.88
2019-03-29T01:07:01.543Z,4.78
2019-03-29T01:08:07.644Z,4.74
2019-03-29T01:09:01.585Z,4.66
2019-03-29T01:10:01.549Z,4.62
2019-03-29T01:11:01.582Z,4.75
2019-03-29T01:12:01.573Z,4.80
2019-03-29T01:13:01.532Z,4.75
2019-03-29T01:14:01.566Z,4.72
2019-03-29T01:15:01.556Z,4.68
2019-03-29T01:16:01.846Z,4.63
2019-03-29T01:17:01.563Z,4.49
2019-03-29T01:18:01.604Z,4.38
2019-03-29T01:19:01.554Z,4.34
2019-03-29T01:20:01.563Z,4.34
2019-03-29T01:21:01.615Z,4.29
2019-03-29T01:22:01.533Z,4.27
2019-03-29T01:23:01.587Z,4.38
2019-03-29T01:24:01.576Z,4.47
2019-03-29T01:25:01.566Z,4.42
2019-03-29T01:26:01.554Z,4.25
2019-03-29T01:27:01.577Z,4.18
2019-03-29T01:28:01.557Z,4.12
2019-03-29T01:29:01.582Z,4.05
2019-03-29T01:30:01.586Z,3.98
2019-03-29T01:31:01.540Z,3.93
2019-03-29T01:32:01.542Z,3.86
2019-03-29T01:33:01.592Z,3.81
2019-03-29T01:34:01.570Z,3.72
2019-03-29T01:35:01.578Z,3.71
2019-03-29T01:36:02.061Z,3.64
2019-03-29T01:37:01.550Z,3.60
2019-03-29T01:38:01.540Z,3.56
2019-03-29T01:39:01.579Z,3.50
2019-03-29T01:40:01.564Z,3.44
2019-03-29T01:41:01.621Z,3.37
2019-03-29T01:42:01.595Z,3.35
2019-03-29T01:43:01.571Z,3.27
2019-03-29T01:44:02.012Z,3.27
2019-03-29T01:45:01.595Z,3.57
2019-03-29T01:46:01.590Z,3.45
2019-03-29T01:47:01.561Z,3.42
2019-03-29T01:48:01.583Z,3.33
2019-03-29T01:49:01.568Z,3.27
2019-03-29T01:50:01.563Z,3.22
2019-03-29T01:51:02.040Z,3.16
2019-03-29T01:52:01.596Z,3.08
2019-03-29T01:53:01.602Z,3.07
2019-03-29T01:54:01.607Z,3.02
2019-03-29T01:55:01.585Z,3.00
2019-03-29T01:56:01.609Z,3.10
2019-03-29T01:57:01.618Z,3.00
2019-03-29T01:58:01.573Z,2.99
2019-03-29T01:59:01.604Z,3.28
2019-03-29T02:00:01.646Z,3.26
2019-03-29T02:01:02.318Z,3.14
2019-03-29T02:02:01.607Z,3.07
2019-03-29T02:03:01.620Z,2.96
2019-03-29T02:04:01.580Z,2.84
2019-03-29T02:05:01.625Z,2.78
2019-03-29T02:06:01.627Z,2.84
2019-03-29T02:07:01.596Z,2.96
2019-03-29T02:08:01.590Z,2.89
2019-03-29T02:09:01.625Z,2.79
2019-03-29T02:10:01.601Z,2.68
2019-03-29T02:11:01.605Z,2.65
2019-03-29T02:12:01.667Z,2.59
2019-03-29T02:13:01.581Z,2.62
2019-03-29T02:14:01.590Z,2.70
2019-03-29T02:15:01.608Z,2.74
2019-03-29T02:16:01.670Z,2.70
2019-03-29T02:17:01.621Z,2.57
2019-03-29T02:18:01.605Z,2.50
2019-03-29T02:19:01.577Z,2.47
2019-03-29T02:20:01.609Z,2.45
2019-03-29T02:21:01.614Z,2.39
2019-03-29T02:22:01.596Z,2.30
2019-03-29T02:23:01.586Z,2.20
2019-03-29T02:24:01.666Z,2.24
2019-03-29T02:25:01.586Z,2.44
2019-03-29T02:26:01.617Z,2.33
2019-03-29T02:27:01.619Z,2.21
2019-03-29T02:28:01.596Z,2.07
2019-03-29T02:29:01.573Z,1.96
2019-03-29T02:30:04.350Z,1.97
2019-03-29T02:31:01.629Z,2.22
2019-03-29T02:32:01.619Z,2.15
2019-03-29T02:33:01.638Z,2.08
2019-03-29T02:34:01.614Z,2.00
2019-03-29T02:35:01.652Z,1.93
2019-03-29T02:36:01.698Z,1.90
2019-03-29T02:37:02.310Z,1.84
2019-03-29T02:38:01.689Z,1.88
2019-03-29T02:39:01.715Z,1.86
2019-03-29T02:40:01.701Z,1.87
2019-03-29T02:41:01.719Z,1.85
2019-03-29T02:42:01.759Z,1.79
2019-03-29T02:43:01.734Z,1.71
2019-03-29T02:44:01.733Z,1.71
2019-03-29T02:45:03.330Z,1.67
2019-03-29T02:46:01.753Z,1.63
2019-03-29T02:47:01.831Z,1.61
2019-03-29T02:48:01.875Z,1.81
2019-03-29T02:49:01.816Z,1.94
2019-03-29T02:50:01.841Z,1.82
2019-03-29T02:51:01.845Z,1.69
2019-03-29T02:52:01.830Z,1.64
2019-03-29T02:53:01.881Z,1.52
2019-03-29T02:54:01.954Z,1.46
2019-03-29T02:55:01.870Z,1.41
2019-03-29T02:56:01.900Z,1.42
2019-03-29T02:57:01.961Z,1.41
2019-03-29T02:58:01.932Z,1.41
2019-03-29T02:59:01.926Z,1.35
2019-03-29T03:00:01.967Z,1.30
2019-03-29T03:01:01.951Z,1.29
2019-03-29T03:02:01.923Z,1.35
2019-03-29T03:03:02.009Z,1.37
2019-03-29T03:04:01.983Z,1.33
2019-03-29T03:05:01.972Z,1.29
2019-03-29T03:06:02.046Z,1.37
2019-03-29T03:07:02.034Z,1.49
2019-03-29T03:08:02.048Z,1.45
2019-03-29T03:09:13.017Z,1.40
2019-03-29T03:10:02.043Z,1.30
2019-03-29T03:11:02.049Z,1.42
2019-03-29T03:12:02.066Z,1.43
2019-03-29T03:13:02.029Z,1.35
2019-03-29T03:14:02.041Z,1.29
2019-03-29T03:15:02.077Z,1.37
2019-03-29T03:16:02.062Z,1.36
2019-03-29T03:17:02.191Z,1.23
2019-03-29T03:18:02.048Z,1.19
2019-03-29T03:19:02.041Z,1.19
2019-03-29T03:20:02.021Z,1.32
2019-03-29T03:21:02.092Z,1.28
2019-03-29T03:22:02.040Z,1.20
2019-03-29T03:23:02.072Z,1.13
2019-03-29T03:24:02.115Z,1.04
2019-03-29T03:25:02.020Z,0.95
2019-03-29T03:26:02.040Z,1.10
2019-03-29T03:27:02.087Z,1.21
2019-03-29T03:28:02.063Z,1.02
2019-03-29T03:29:02.063Z,0.95
2019-03-29T03:30:02.079Z,0.85
2019-03-29T03:31:02.038Z,0.75
2019-03-29T03:32:02.047Z,0.70
2019-03-29T03:33:02.137Z,0.70
2019-03-29T03:34:02.069Z,0.77
2019-03-29T03:35:02.055Z,0.81
2019-03-29T03:36:02.097Z,0.73
2019-03-29T03:37:02.047Z,0.85
2019-03-29T03:38:02.118Z,0.93
2019-03-29T03:39:02.115Z,0.83
2019-03-29T03:40:02.067Z,0.79
2019-03-29T03:41:02.080Z,0.74
2019-03-29T03:42:02.099Z,0.60
2019-03-29T03:43:02.057Z,0.51
2019-03-29T03:44:02.079Z,0.49
2019-03-29T03:45:02.103Z,0.69
2019-03-29T03:46:02.029Z,0.75
2019-03-29T03:47:02.076Z,0.64
2019-03-29T03:48:02.097Z,0.56
2019-03-29T03:49:02.083Z,0.56
2019-03-29T03:50:02.176Z,0.60
2019-03-29T03:51:02.073Z,0.73
2019-03-29T03:52:02.048Z,0.78
2019-03-29T03:53:02.071Z,0.72
2019-03-29T03:54:02.131Z,0.60
2019-03-29T03:55:02.080Z,0.47
2019-03-29T03:56:02.096Z,0.39
2019-03-29T03:57:02.086Z,0.37
2019-03-29T03:58:02.075Z,0.31
2019-03-29T03:59:02.068Z,0.27
2019-03-29T04:00:02.108Z,0.26
2019-03-29T04:01:02.067Z,0.38
2019-03-29T04:02:02.114Z,0.43
2019-03-29T04:03:02.086Z,0.38
2019-03-29T04:04:02.058Z,0.31
2019-03-29T04:05:02.091Z,0.25
2019-03-29T04:06:02.107Z,0.27
2019-03-29T04:07:02.066Z,0.43
2019-03-29T04:08:02.075Z,0.39
2019-03-29T04:09:02.096Z,0.33
2019-03-29T04:10:02.082Z,0.33
2019-03-29T04:11:02.071Z,0.34
2019-03-29T04:12:02.102Z,0.34
2019-03-29T04:13:02.067Z,0.32
2019-03-29T04:14:02.077Z,0.26
2019-03-29T04:15:02.177Z,0.36
2019-03-29T04:16:02.096Z,0.32
2019-03-29T04:17:02.085Z,0.26
2019-03-29T04:18:02.123Z,0.27
2019-03-29T04:19:02.065Z,0.35
2019-03-29T04:20:02.100Z,0.25
2019-03-29T04:21:02.153Z,0.20
2019-03-29T04:22:02.081Z,0.18
2019-03-29T04:23:02.096Z,0.19
2019-03-29T04:24:02.124Z,0.10
2019-03-29T04:25:02.100Z,0.06
2019-03-29T04:26:02.099Z,0.02
2019-03-29T04:27:02.111Z,-0.03
2019-03-29T04:28:02.062Z,-0.05
2019-03-29T04:29:04.611Z,-0.11
2019-03-29T04:30:02.110Z,-0.14
2019-03-29T04:31:02.063Z,-0.23
2019-03-29T04:32:02.134Z,-0.27
2019-03-29T04:33:02.178Z,-0.25
2019-03-29T04:34:02.056Z,-0.10
2019-03-29T04:35:02.109Z,-0.16
2019-03-29T04:36:02.125Z,-0.18
2019-03-29T04:37:02.115Z,-0.23
2019-03-29T04:38:02.130Z,-0.12
2019-03-29T04:39:02.095Z,-0.13
2019-03-29T04:40:07.963Z,-0.20
2019-03-29T04:41:02.120Z,-0.24
2019-03-29T04:42:02.226Z,-0.26
2019-03-29T04:43:02.087Z,-0.28
2019-03-29T04:44:02.151Z,-0.30
2019-03-29T04:45:02.146Z,-0.33
2019-03-29T04:46:02.106Z,-0.39
2019-03-29T04:47:02.130Z,-0.41
2019-03-29T04:48:02.124Z,-0.44
2019-03-29T04:49:02.100Z,-0.46
2019-03-29T04:50:02.126Z,-0.46
2019-03-29T04:51:02.102Z,-0.50
2019-03-29T04:52:02.107Z,-0.51
2019-03-29T04:53:02.094Z,-0.47
2019-03-29T04:54:02.117Z,-0.45
2019-03-29T04:55:02.112Z,-0.45
2019-03-29T04:56:02.160Z,-0.43
2019-03-29T04:57:02.127Z,-0.42
2019-03-29T04:58:02.095Z,-0.43
2019-03-29T04:59:02.152Z,-0.43
2019-03-29T05:00:02.145Z,-0.45
2019-03-29T05:01:02.103Z,-0.45
2019-03-29T05:02:02.121Z,-0.45
2019-03-29T05:03:02.152Z,-0.48
2019-03-29T05:04:02.097Z,-0.49
2019-03-29T05:05:02.108Z,-0.48
2019-03-29T05:06:02.123Z,-0.50
2019-03-29T05:07:02.121Z,-0.49
2019-03-29T05:08:02.106Z,-0.47
2019-03-29T05:09:02.129Z,-0.45
2019-03-29T05:10:02.102Z,-0.45
2019-03-29T05:11:02.132Z,-0.41
2019-03-29T05:12:02.127Z,-0.33
2019-03-29T05:13:02.101Z,-0.35
2019-03-29T05:14:02.139Z,-0.42
2019-03-29T05:15:02.131Z,-0.40
2019-03-29T05:16:02.115Z,-0.40
2019-03-29T05:17:02.099Z,-0.39
2019-03-29T05:18:02.149Z,-0.41
2019-03-29T05:19:02.127Z,-0.43
2019-03-29T05:20:02.143Z,-0.41
2019-03-29T05:21:02.134Z,-0.37
2019-03-29T05:22:02.113Z,-0.32
2019-03-29T05:23:02.126Z,-0.30
2019-03-29T05:24:02.170Z,-0.27
2019-03-29T05:25:02.142Z,-0.24
2019-03-29T05:26:02.148Z,-0.20
2019-03-29T05:27:02.141Z,-0.18
2019-03-29T05:28:02.103Z,-0.15
2019-03-29T05:29:02.088Z,-0.15
2019-03-29T05:30:02.133Z,-0.18
2019-03-29T05:31:02.128Z,-0.18
2019-03-29T05:32:02.149Z,-0.16
2019-03-29T05:33:02.155Z,-0.13
2019-03-29T05:34:02.113Z,-0.10
2019-03-29T05:35:02.140Z,-0.09
2019-03-29T05:36:02.196Z,-0.05
2019-03-29T05:37:02.145Z,-0.05
2019-03-29T05:38:02.142Z,0.00
2019-03-29T05:39:02.161Z,0.02
2019-03-29T05:40:02.122Z,0.02
2019-03-29T05:41:02.121Z,0.09
2019-03-29T05:42:02.150Z,0.07
2019-03-29T05:43:02.139Z,0.11
2019-03-29T05:44:02.133Z,0.16
2019-03-29T05:45:02.159Z,0.14
2019-03-29T05:46:02.110Z,0.21
2019-03-29T05:47:02.145Z,0.23
2019-03-29T05:48:02.160Z,0.24
2019-03-29T05:49:02.148Z,0.28
2019-03-29T05:50:02.138Z,0.30
2019-03-29T05:51:02.142Z,0.34
2019-03-29T05:52:02.121Z,0.37
2019-03-29T05:53:02.173Z,0.39
2019-03-29T05:54:02.159Z,0.39
2019-03-29T05:55:02.162Z,0.43
2019-03-29T05:56:02.147Z,0.46
2019-03-29T05:57:02.194Z,0.49
2019-03-29T05:58:02.122Z,0.56
2019-03-29T05:59:02.152Z,0.63
2019-03-29T06:00:02.147Z,0.72
2019-03-29T06:01:02.143Z,0.76
2019-03-29T06:02:02.145Z,0.82
2019-03-29T06:03:02.176Z,0.91
2019-03-29T06:04:02.141Z,0.96
2019-03-29T06:05:02.154Z,0.99
2019-03-29T06:06:02.143Z,1.00
2019-03-29T06:07:02.161Z,1.06
2019-03-29T06:08:02.148Z,1.10
2019-03-29T06:09:02.183Z,1.21
2019-03-29T06:10:02.122Z,1.26
2019-03-29T06:11:02.212Z,1.30
2019-03-29T06:12:02.174Z,1.33
2019-03-29T06:13:02.143Z,1.34
2019-03-29T06:14:02.166Z,1.41
2019-03-29T06:15:02.164Z,1.52
2019-03-29T06:16:02.140Z,1.62
2019-03-29T06:17:02.143Z,1.65
2019-03-29T06:18:02.231Z,1.69
2019-03-29T06:19:02.134Z,1.81
2019-03-29T06:20:02.194Z,1.86
2019-03-29T06:21:02.183Z,1.95
2019-03-29T06:22:02.211Z,1.91
2019-03-29T06:23:02.181Z,1.98
2019-03-29T06:24:02.185Z,2.06
2019-03-29T06:25:02.153Z,2.15
2019-03-29T06:26:02.182Z,2.20
2019-03-29T06:27:02.174Z,2.23
2019-03-29T06:28:02.153Z,2.24
2019-03-29T06:29:02.176Z,2.32
2019-03-29T06:30:02.192Z,2.43
2019-03-29T06:31:02.151Z,2.52
2019-03-29T06:32:02.157Z,2.52
2019-03-29T06:33:02.191Z,2.67
2019-03-29T06:34:02.179Z,2.84
2019-03-29T06:35:02.213Z,2.96
2019-03-29T06:36:02.265Z,3.22
2019-03-29T06:37:02.174Z,3.55
2019-03-29T06:38:02.161Z,3.82
2019-03-29T06:39:02.181Z,3.79
2019-03-29T06:40:02.157Z,3.75
2019-03-29T06:41:03.470Z,3.88
2019-03-29T06:42:02.201Z,4.05
2019-03-29T06:43:02.173Z,4.40
2019-03-29T06:44:02.180Z,4.70
2019-03-29T06:45:02.192Z,5.25
2019-03-29T06:46:02.154Z,5.81
2019-03-29T06:47:02.206Z,6.26
2019-03-29T06:48:02.177Z,6.25
2019-03-29T06:49:02.168Z,6.57
2019-03-29T06:50:02.176Z,7.08
2019-03-29T06:51:02.223Z,7.61
2019-03-29T06:52:02.186Z,7.36
2019-03-29T06:53:02.194Z,7.61
2019-03-29T06:54:02.193Z,8.19
2019-03-29T06:55:02.155Z,8.35
2019-03-29T06:56:02.179Z,8.77
2019-03-29T06:57:02.189Z,9.58
2019-03-29T06:58:02.175Z,9.87
2019-03-29T06:59:02.240Z,10.22
2019-03-29T07:00:02.212Z,10.11
2019-03-29T07:01:02.158Z,10.07
2019-03-29T07:02:02.173Z,11.02
2019-03-29T07:03:02.204Z,11.82
2019-03-29T07:04:02.204Z,12.06
2019-03-29T07:05:02.237Z,12.16
2019-03-29T07:06:02.214Z,12.10
2019-03-29T07:07:02.177Z,11.95
2019-03-29T07:08:02.196Z,12.03
2019-03-29T07:09:02.206Z,11.78
2019-03-29T07:10:02.171Z,12.28
2019-03-29T07:11:16.249Z,12.82
2019-03-29T07:12:02.192Z,12.88
2019-03-29T07:13:02.187Z,12.16
2019-03-29T07:14:02.164Z,11.55
2019-03-29T07:15:02.209Z,11.16
2019-03-29T07:16:02.200Z,11.04
2019-03-29T07:17:02.172Z,11.17
2019-03-29T07:18:02.218Z,11.04
2019-03-29T07:19:04.835Z,10.74
2019-03-29T07:20:02.230Z,10.30
2019-03-29T07:21:02.212Z,10.47
2019-03-29T07:22:02.179Z,11.01
2019-03-29T07:23:02.184Z,11.14
2019-03-29T07:24:02.234Z,11.49
2019-03-29T07:25:02.210Z,11.60
2019-03-29T07:26:02.204Z,11.59
2019-03-29T07:27:02.302Z,12.14
2019-03-29T07:28:02.217Z,12.37
2019-03-29T07:29:02.239Z,12.05
2019-03-29T07:30:02.237Z,11.84
2019-03-29T07:31:02.171Z,11.18
2019-03-29T07:32:02.222Z,11.55
2019-03-29T07:33:02.236Z,12.39
2019-03-29T07:34:02.186Z,12.60
2019-03-29T07:35:02.225Z,12.77
2019-03-29T07:36:02.214Z,13.43
2019-03-29T07:37:05.567Z,13.49
2019-03-29T07:38:02.292Z,13.53
2019-03-29T07:39:02.288Z,13.50
2019-03-29T07:40:02.173Z,13.74
2019-03-29T07:41:02.224Z,13.62
2019-03-29T07:42:02.226Z,12.62
2019-03-29T07:43:02.186Z,11.29
2019-03-29T07:44:02.237Z,10.48
2019-03-29T07:45:02.233Z,11.26
2019-03-29T07:46:02.184Z,11.82
2019-03-29T07:47:02.203Z,11.97
2019-03-29T07:48:02.227Z,12.15
2019-03-29T07:49:02.211Z,12.15
2019-03-29T07:50:02.227Z,11.32
2019-03-29T07:51:02.309Z,11.41
2019-03-29T07:52:02.188Z,11.62
2019-03-29T07:53:02.224Z,12.16
2019-03-29T07:54:02.222Z,12.14
2019-03-29T07:55:02.199Z,11.76
2019-03-29T07:56:02.256Z,11.70
2019-03-29T07:57:02.232Z,11.84
2019-03-29T07:58:02.221Z,11.77
2019-03-29T07:59:02.248Z,11.67
2019-03-29T08:00:02.248Z,11.42
2019-03-29T08:01:02.194Z,11.28
2019-03-29T08:02:02.455Z,11.37
2019-03-29T08:03:02.308Z,11.17
2019-03-29T08:04:02.238Z,11.01
2019-03-29T08:05:02.242Z,10.92
2019-03-29T08:06:02.298Z,11.14
2019-03-29T08:07:02.224Z,11.80
2019-03-29T08:08:02.233Z,12.37
2019-03-29T08:09:02.273Z,12.60
2019-03-29T08:10:04.096Z,12.79
2019-03-29T08:11:02.235Z,12.29
2019-03-29T08:12:02.258Z,12.27
2019-03-29T08:13:02.200Z,12.61
2019-03-29T08:14:02.270Z,11.83
2019-03-29T08:15:02.269Z,11.62
2019-03-29T08:16:02.218Z,11.36
2019-03-29T08:17:02.247Z,11.24
2019-03-29T08:18:02.255Z,10.89
2019-03-29T08:19:02.210Z,10.66
2019-03-29T08:20:36.502Z,10.57
2019-03-29T08:21:02.260Z,10.59
2019-03-29T08:22:02.235Z,10.66
2019-03-29T08:23:02.271Z,10.54
2019-03-29T08:24:02.309Z,10.55
2019-03-29T08:25:02.236Z,10.61
2019-03-29T08:26:02.247Z,10.58
2019-03-29T08:27:02.242Z,10.84
2019-03-29T08:28:02.207Z,11.03
2019-03-29T08:29:02.256Z,11.07
2019-03-29T08:30:02.277Z,11.11
2019-03-29T08:31:02.244Z,10.87
2019-03-29T08:32:02.276Z,11.01
2019-03-29T08:33:02.262Z,10.48
2019-03-29T08:34:02.241Z,10.67
2019-03-29T08:35:02.271Z,10.64
2019-03-29T08:36:02.283Z,10.39
2019-03-29T08:37:02.263Z,10.41
2019-03-29T08:38:05.867Z,10.52
2019-03-29T08:39:02.255Z,10.21
2019-03-29T08:40:02.264Z,10.18
2019-03-29T08:41:02.286Z,10.40
2019-03-29T08:42:02.298Z,10.98
2019-03-29T08:43:02.322Z,11.62
2019-03-29T08:44:02.261Z,12.33
2019-03-29T08:45:02.307Z,12.41
2019-03-29T08:46:02.231Z,11.45
2019-03-29T08:47:02.263Z,11.61
2019-03-29T08:48:02.474Z,12.04
2019-03-29T08:49:02.251Z,12.43
2019-03-29T08:50:02.297Z,12.54
2019-03-29T08:51:02.267Z,12.54
2019-03-29T08:52:02.227Z,12.54
2019-03-29T08:53:02.278Z,12.46
2019-03-29T08:54:02.300Z,12.14
2019-03-29T08:55:02.303Z,12.16
2019-03-29T08:56:02.298Z,12.27
2019-03-29T08:57:02.263Z,12.51
2019-03-29T08:58:02.284Z,12.57
2019-03-29T08:59:02.272Z,12.43
2019-03-29T09:00:02.280Z,12.15
2019-03-29T09:01:02.242Z,11.95
2019-03-29T09:02:02.262Z,11.85
2019-03-29T09:03:02.273Z,11.72
2019-03-29T09:04:05.641Z,11.80
2019-03-29T09:05:02.276Z,11.86
2019-03-29T09:06:02.286Z,12.32
2019-03-29T09:07:02.287Z,12.76
2019-03-29T09:08:02.270Z,12.08
2019-03-29T09:09:02.286Z,11.83
2019-03-29T09:10:02.251Z,11.87
2019-03-29T09:11:02.291Z,11.00
2019-03-29T09:12:13.785Z,11.31
2019-03-29T09:13:04.415Z,11.77
2019-03-29T09:14:02.318Z,12.03
2019-03-29T09:15:04.104Z,12.42
2019-03-29T09:16:02.274Z,12.93
2019-03-29T09:17:02.310Z,13.22
2019-03-29T09:18:02.354Z,13.65
2019-03-29T09:19:02.271Z,14.19
2019-03-29T09:20:02.270Z,14.75
2019-03-29T09:21:02.296Z,15.24
2019-03-29T09:22:02.264Z,15.50
2019-03-29T09:23:02.279Z,16.05
2019-03-29T09:24:02.285Z,15.86
2019-03-29T09:25:02.267Z,15.44
2019-03-29T09:26:02.300Z,14.39
2019-03-29T09:27:02.315Z,14.01
2019-03-29T09:28:02.258Z,13.44
2019-03-29T09:29:02.316Z,13.24
2019-03-29T09:30:04.978Z,13.18
2019-03-29T09:31:02.277Z,13.25
2019-03-29T09:32:02.317Z,13.30
2019-03-29T09:33:02.286Z,13.23
2019-03-29T09:34:02.257Z,13.04
2019-03-29T09:35:02.310Z,13.05
2019-03-29T09:36:05.020Z,13.01
2019-03-29T09:37:02.298Z,12.57
2019-03-29T09:38:02.319Z,12.50
2019-03-29T09:39:02.351Z,12.33
2019-03-29T09:40:02.313Z,12.41
2019-03-29T09:41:02.357Z,12.49
2019-03-29T09:42:02.364Z,12.37
2019-03-29T09:43:08.019Z,12.07
2019-03-29T09:44:02.356Z,12.06
2019-03-29T09:45:02.409Z,12.12
2019-03-29T09:46:03.426Z,12.28
2019-03-29T09:47:02.410Z,12.35
2019-03-29T09:48:02.440Z,12.32
2019-03-29T09:49:02.366Z,12.34
2019-03-29T09:50:02.372Z,12.34
2019-03-29T09:51:02.384Z,12.17
2019-03-29T09:52:02.368Z,11.89
2019-03-29T09:53:02.386Z,11.79
2019-03-29T09:54:02.405Z,11.83
2019-03-29T09:55:02.388Z,11.75
2019-03-29T09:56:02.381Z,11.87
2019-03-29T09:57:02.390Z,11.94
2019-03-29T09:58:02.368Z,11.94
2019-03-29T09:59:02.394Z,11.81
2019-03-29T10:00:02.367Z,11.57
2019-03-29T10:01:02.370Z,11.71
2019-03-29T10:02:02.398Z,11.90
2019-03-29T10:03:02.396Z,12.04
2019-03-29T10:04:02.379Z,11.82
2019-03-29T10:05:02.420Z,11.90
2019-03-29T10:06:02.396Z,12.05
2019-03-29T10:07:02.336Z,12.15
2019-03-29T10:08:02.376Z,12.26
2019-03-29T10:09:02.411Z,12.31
2019-03-29T10:10:02.511Z,12.31
2019-03-29T10:11:02.387Z,12.30
2019-03-29T10:12:02.407Z,12.42
2019-03-29T10:13:02.345Z,12.54
2019-03-29T10:14:02.386Z,12.39
2019-03-29T10:15:02.435Z,12.44
2019-03-29T10:16:02.425Z,12.49
2019-03-29T10:17:02.407Z,12.44
2019-03-29T10:18:02.456Z,12.25
2019-03-29T10:19:02.359Z,12.24
2019-03-29T10:20:02.436Z,12.22
2019-03-29T10:21:02.448Z,12.28
2019-03-29T10:22:02.401Z,12.08
2019-03-29T10:23:02.410Z,11.85
2019-03-29T10:24:02.413Z,11.81
2019-03-29T10:25:02.802Z,11.63
2019-03-29T10:26:02.398Z,11.56
2019-03-29T10:27:02.462Z,11.64
2019-03-29T10:28:02.423Z,11.72
2019-03-29T10:29:02.413Z,11.78
2019-03-29T10:30:02.439Z,11.60
2019-03-29T10:31:02.412Z,11.70
2019-03-29T10:32:05.483Z,11.82
2019-03-29T10:33:02.447Z,11.89
2019-03-29T10:34:02.404Z,11.95
2019-03-29T10:35:02.428Z,11.92
2019-03-29T10:36:02.449Z,12.05
2019-03-29T10:37:02.421Z,11.96
2019-03-29T10:38:02.441Z,12.18
2019-03-29T10:39:02.423Z,12.38
2019-03-29T10:40:02.390Z,12.53
2019-03-29T10:41:02.423Z,12.68
2019-03-29T10:42:02.402Z,12.84
2019-03-29T10:43:02.397Z,13.02
2019-03-29T10:44:02.434Z,13.25
2019-03-29T10:45:02.430Z,13.25
2019-03-29T10:46:02.410Z,12.72
2019-03-29T10:47:02.435Z,12.75
2019-03-29T10:48:02.439Z,12.87
2019-03-29T10:49:02.423Z,13.09
2019-03-29T10:50:02.452Z,13.13
2019-03-29T10:51:02.440Z,13.44
2019-03-29T10:52:02.422Z,13.63
2019-03-29T10:53:02.449Z,13.68
2019-03-29T10:54:02.461Z,13.82
2019-03-29T10:55:02.421Z,13.76
2019-03-29T10:56:02.458Z,13.59
2019-03-29T10:57:02.433Z,13.34
2019-03-29T10:58:02.411Z,13.22
2019-03-29T10:59:02.430Z,13.31
2019-03-29T11:00:02.429Z,13.36
2019-03-29T11:01:02.446Z,13.63
2019-03-29T11:02:02.429Z,13.90
2019-03-29T11:03:02.468Z,14.01
2019-03-29T11:04:02.435Z,14.03
2019-03-29T11:05:02.446Z,14.32
2019-03-29T11:06:02.495Z,14.20
2019-03-29T11:07:02.410Z,13.80
2019-03-29T11:08:02.466Z,13.61
2019-03-29T11:09:02.449Z,13.58
2019-03-29T11:10:02.397Z,13.95
2019-03-29T11:11:02.443Z,14.41
2019-03-29T11:12:02.457Z,14.84
2019-03-29T11:13:12.607Z,15.21
2019-03-29T11:14:02.442Z,15.88
2019-03-29T11:15:02.441Z,16.14
2019-03-29T11:16:02.420Z,16.25
2019-03-29T11:17:02.465Z,16.43
2019-03-29T11:18:02.500Z,15.78
2019-03-29T11:19:02.408Z,16.01
2019-03-29T11:20:02.463Z,16.86
2019-03-29T11:21:02.451Z,17.63
2019-03-29T11:22:02.438Z,17.80
2019-03-29T11:23:02.459Z,18.17
2019-03-29T11:24:02.497Z,17.88
2019-03-29T11:25:02.437Z,16.56
2019-03-29T11:26:02.480Z,16.29
2019-03-29T11:27:02.451Z,14.70
2019-03-29T11:28:02.439Z,15.02
2019-03-29T11:29:02.458Z,15.64
2019-03-29T11:30:02.479Z,15.95
2019-03-29T11:31:02.471Z,16.09
2019-03-29T11:32:02.442Z,16.15
2019-03-29T11:33:02.472Z,16.25
2019-03-29T11:34:02.450Z,16.89
2019-03-29T11:35:02.440Z,15.96
2019-03-29T11:36:02.543Z,15.89
2019-03-29T11:37:02.471Z,16.88
2019-03-29T11:38:02.441Z,17.67
2019-03-29T11:39:02.484Z,17.98
2019-03-29T11:40:02.456Z,17.97
2019-03-29T11:41:02.471Z,17.34
2019-03-29T11:42:03.699Z,16.59
2019-03-29T11:43:02.476Z,16.28
2019-03-29T11:44:02.497Z,16.17
2019-03-29T11:45:02.531Z,14.93
2019-03-29T11:46:02.426Z,13.95
2019-03-29T11:47:02.491Z,15.30
2019-03-29T11:48:08.898Z,16.70
2019-03-29T11:49:02.437Z,17.56
2019-03-29T11:50:02.495Z,17.72
2019-03-29T11:51:02.480Z,17.75
2019-03-29T11:52:02.492Z,18.25
2019-03-29T11:53:02.485Z,18.20
2019-03-29T11:54:02.512Z,18.19
2019-03-29T11:55:02.449Z,18.51
2019-03-29T11:56:02.519Z,18.65
2019-03-29T11:57:02.476Z,19.36
2019-03-29T11:58:02.455Z,19.56
2019-03-29T11:59:02.506Z,19.46
2019-03-29T12:00:02.512Z,19.61
2019-03-29T12:01:05.393Z,19.75
2019-03-29T12:02:02.517Z,19.32
2019-03-29T12:03:02.504Z,19.59
2019-03-29T12:04:02.480Z,19.58
2019-03-29T12:05:02.510Z,19.31
2019-03-29T12:06:02.521Z,18.34
2019-03-29T12:07:03.659Z,18.66
2019-03-29T12:08:02.492Z,16.86
2019-03-29T12:09:02.502Z,16.02
2019-03-29T12:10:02.450Z,17.04
2019-03-29T12:11:02.528Z,18.45
2019-03-29T12:12:02.588Z,18.89
2019-03-29T12:13:02.468Z,18.87
2019-03-29T12:14:04.958Z,18.97
2019-03-29T12:15:02.545Z,17.79
2019-03-29T12:16:02.462Z,17.40
2019-03-29T12:17:02.519Z,16.78
2019-03-29T12:18:02.536Z,16.17
2019-03-29T12:19:02.493Z,16.10
2019-03-29T12:20:02.501Z,15.66
2019-03-29T12:21:02.506Z,16.26
2019-03-29T12:22:02.492Z,16.42
2019-03-29T12:23:02.548Z,14.89
2019-03-29T12:24:02.540Z,15.19
2019-03-29T12:25:02.469Z,16.26
2019-03-29T12:26:02.529Z,16.57
2019-03-29T12:27:02.517Z,17.01
2019-03-29T12:28:02.483Z,17.68
2019-03-29T12:29:02.519Z,17.55
2019-03-29T12:30:02.575Z,17.55
2019-03-29T12:31:02.493Z,17.59
2019-03-29T12:32:02.513Z,16.58
2019-03-29T12:33:02.525Z,16.96
2019-03-29T12:34:02.490Z,17.44
2019-03-29T12:35:02.506Z,15.97
2019-03-29T12:36:02.559Z,16.36
2019-03-29T12:37:02.513Z,17.69
2019-03-29T12:38:02.524Z,17.75
2019-03-29T12:39:02.552Z,16.85
2019-03-29T12:40:02.505Z,16.33
2019-03-29T12:41:02.552Z,16.66
2019-03-29T12:42:02.535Z,16.65
2019-03-29T12:43:02.521Z,17.62
2019-03-29T12:44:02.578Z,17.55
2019-03-29T12:45:02.627Z,17.52
2019-03-29T12:46:02.570Z,18.28
2019-03-29T12:47:02.633Z,18.94
2019-03-29T12:48:02.611Z,19.72
2019-03-29T12:49:02.575Z,19.53
2019-03-29T12:50:02.669Z,18.62
2019-03-29T12:51:02.643Z,18.12
2019-03-29T12:52:02.682Z,17.58
2019-03-29T12:53:02.668Z,18.11
2019-03-29T12:54:03.286Z,18.06
2019-03-29T12:55:02.685Z,18.64
2019-03-29T12:56:02.717Z,19.17
2019-03-29T12:57:02.745Z,19.52
2019-03-29T12:58:02.716Z,20.26
2019-03-29T12:59:02.735Z,21.02
2019-03-29T13:00:02.771Z,20.38
2019-03-29T13:01:02.734Z,19.46
2019-03-29T13:02:02.767Z,19.34
2019-03-29T13:03:02.816Z,19.10